Chattanooga, TN (37401)

2:45 PM EDT on July 27, 2016 (GMT -0400)
APRSWXNET | | Change Station

Elev 1050 ft 35.04 °N, 85.25 °W | Updated 32 minutes ago

Mostly Cloudy
Mostly Cloudy
91 °F
Feels Like 99 °F
N
4
Wind Variable Wind from SSW
Gusts 0.0 mph

Today
High -- | Low -- °F
--% Chance of Precip.
Yesterday
High -- | Low -- °F
Precip. -- in
Pressure 29.99 in
Visibility 10.0 miles
Clouds Mostly Cloudy 5000 ft
Heat Index 99 °F
Dew Point 73 °F
Humidity 55%
Rainfall in
Snow Depth Not available.
6:47 AM 8:47 PM
Last Quarter, 41% visible
METAR KCHA 271753Z 17006KT 10SM BKN050 33/21 A3002 RMK AO2 SLP156 CB DSNT N T03280211 10339 20250 58007
Pressure 29.99 in
Visibility 10.0 miles
Clouds Mostly Cloudy 5000 ft
Heat Index 99 °F
Dew Point 73 °F
Humidity 55%
Rainfall in
Snow Depth Not available.
6:47 AM 8:47 PM
Last Quarter, 41% visible
METAR KCHA 271753Z 17006KT 10SM BKN050 33/21 A3002 RMK AO2 SLP156 CB DSNT N T03280211 10339 20250 58007

10-Day Weather Forecast

Almanac

Astronomy

Jul. 27, 2016 Rise Set
Actual Time
Civil Twilight
Nautical Twilight
Astronomical Twilight
Moon
Length of Visible Light
Length of Day
Tomorrow will be .
, % of the Moon is Illuminated

Today's Extremes

State Highs State Lows

Community

WunderPhotos

Upload Photos

1,927,897 photos uploaded!

WunderBlog® & News

Nearby

Air Quality

  Air Quality AQ Index Pollutant
Not available.

Snow Depth

Station Depth Elevation

Earthquake Activity

City Distance Mag. Time & Date
Minimum magnitude displayed is 2.5.

Coastal Water Temperatures

Place Temperature

Stations

Nearby Weather Stations

Station Location Temp. Windchill Dew Point Humidity Wind Precip. Elev Updated Type
                   

Watches & Warnings

There are currently no watches in effect.